Time;durP1;ratioP1;P1;durP2;ratioP2;P2;SDS_P1;SDS_P2;PMS_P1;PMS_P2;Temp;Humidity;BMP_temperature;BMP_pressure;BME280_temperature;BME280_humidity;BME280_pressure;Samples;Min_cycle;Max_cycle;Signal;HPM_P1;HPM_P2
2023/04/19 00:01:03;;;;;;;18.63;7.15;;;;;;;9.02;68.11;101373.91;5076661;28;20067;-49
2023/04/19 00:03:30;;;;;;;16.92;7.00;;;;;;;9.00;67.97;101372.16;5084351;28;20591;-51
2023/04/19 00:05:58;;;;;;;18.27;7.75;;;;;;;8.98;68.34;101386.75;5084682;28;20051;-53
2023/04/19 00:08:25;;;;;;;18.73;7.13;;;;;;;9.00;68.28;101382.50;5081498;28;20059;-52
2023/04/19 00:10:52;;;;;;;15.20;7.88;;;;;;;9.00;68.72;101376.44;5088757;28;20061;-52
2023/04/19 00:13:18;;;;;;;15.90;7.45;;;;;;;8.99;67.86;101372.97;5089717;28;20476;-51
2023/04/19 00:15:45;;;;;;;17.17;7.20;;;;;;;8.99;68.64;101380.72;5080945;28;20552;-49
2023/04/19 00:18:12;;;;;;;17.63;6.43;;;;;;;9.00;68.14;101372.16;5081821;28;20048;-52
2023/04/19 00:20:38;;;;;;;15.98;7.90;;;;;;;9.00;68.91;101371.28;5086677;28;20048;-52
2023/04/19 00:23:05;;;;;;;13.85;6.40;;;;;;;8.99;68.58;101370.38;5082655;28;20036;-49
2023/04/19 00:25:33;;;;;;;24.60;8.60;;;;;;;8.97;68.46;101360.84;5076127;28;20097;-53
2023/04/19 00:28:00;;;;;;;23.17;8.20;;;;;;;8.94;68.78;101369.41;5077439;28;20052;-52
2023/04/19 00:30:26;;;;;;;13.80;7.75;;;;;;;8.96;68.98;101365.16;5074428;28;20105;-53
2023/04/19 00:32:53;;;;;;;19.27;6.75;;;;;;;8.94;68.80;101356.50;5073807;28;20131;-54
2023/04/19 00:35:20;;;;;;;17.02;8.52;;;;;;;8.92;68.97;101358.16;5074364;28;20044;-49
2023/04/19 00:37:46;;;;;;;21.80;7.93;;;;;;;8.93;69.44;101359.03;5076894;28;20093;-52
2023/04/19 00:40:13;;;;;;;15.30;7.65;;;;;;;8.92;69.90;101352.13;5076119;28;20043;-52
2023/04/19 00:42:41;;;;;;;17.08;6.35;;;;;;;8.94;69.08;101363.34;5076886;28;20407;-51
2023/04/19 00:45:08;;;;;;;19.83;8.27;;;;;;;8.89;69.54;101355.50;5076372;28;20135;-53
2023/04/19 00:47:35;;;;;;;20.70;8.77;;;;;;;8.92;69.12;101352.13;5080038;28;20044;-47
2023/04/19 00:50:03;;;;;;;21.40;9.07;;;;;;;8.92;68.99;101355.56;5080856;28;20071;-53
2023/04/19 00:52:32;;;;;;;19.10;7.88;;;;;;;8.89;69.66;101358.09;5082282;28;20059;-46
2023/04/19 00:54:59;;;;;;;21.50;8.48;;;;;;;8.89;69.78;101352.03;5079573;28;20040;-49
2023/04/19 00:57:25;;;;;;;23.63;7.90;;;;;;;8.90;69.25;101349.50;5082977;28;20044;-51
2023/04/19 00:59:53;;;;;;;24.13;7.93;;;;;;;8.87;70.44;101352.00;5082254;28;20494;-52
2023/04/19 01:02:21;;;;;;;18.55;8.00;;;;;;;8.88;69.93;101351.16;5062378;28;20083;-52
2023/04/19 01:04:47;;;;;;;18.58;7.40;;;;;;;8.87;70.25;101354.59;5084915;28;20395;-52
2023/04/19 01:07:15;;;;;;;16.90;7.85;;;;;;;8.88;70.05;101351.16;5086203;28;20087;-54
2023/04/19 01:09:43;;;;;;;18.45;8.02;;;;;;;8.85;70.03;101351.94;5082108;28;20574;-53
2023/04/19 01:12:10;;;;;;;23.40;10.35;;;;;;;8.88;69.63;101346.00;5085977;28;20051;-52
2023/04/19 01:14:37;;;;;;;16.73;8.52;;;;;;;8.86;70.25;101342.50;5080669;28;20040;-53
2023/04/19 01:17:04;;;;;;;19.40;8.60;;;;;;;8.87;69.86;101344.25;5089732;28;20567;-50
2023/04/19 01:19:31;;;;;;;23.42;8.73;;;;;;;8.84;70.17;101339.88;5082218;28;20135;-52
2023/04/19 01:21:58;;;;;;;18.83;7.38;;;;;;;8.77;71.20;101334.50;5080764;28;20044;-52
2023/04/19 01:24:24;;;;;;;20.95;8.88;;;;;;;8.84;70.28;101333.81;5082467;28;20048;-49
2023/04/19 01:26:51;;;;;;;20.85;9.15;;;;;;;8.83;69.92;101334.66;5081390;28;20052;-52
2023/04/19 01:29:19;;;;;;;21.98;9.35;;;;;;;8.88;70.00;101335.66;5076678;28;20131;-48
2023/04/19 01:31:50;;;;;;;17.52;8.05;;;;;;;8.86;70.68;101327.00;5077622;28;20127;-54
2023/04/19 01:34:16;;;;;;;18.63;8.88;;;;;;;8.86;69.86;101322.69;5078089;28;20050;-49
2023/04/19 01:36:43;;;;;;;21.85;7.80;;;;;;;8.81;70.91;101318.28;5081510;28;20652;-48
2023/04/19 01:39:10;;;;;;;25.60;9.38;;;;;;;8.83;70.15;101317.47;5084285;28;20142;-48
2023/04/19 01:41:37;;;;;;;19.92;7.85;;;;;;;8.84;70.10;101313.16;5087458;28;20498;-49
2023/04/19 01:44:03;;;;;;;18.00;6.55;;;;;;;8.82;69.84;101305.38;5088081;28;20705;-49
2023/04/19 01:46:30;;;;;;;21.52;7.65;;;;;;;8.83;70.07;101316.59;5081878;28;20557;-55
2023/04/19 01:48:57;;;;;;;17.63;7.43;;;;;;;8.78;70.35;101313.03;5078098;28;20139;-47
2023/04/19 01:51:23;;;;;;;17.00;8.23;;;;;;;8.76;70.72;101310.41;5083938;28;20043;-47
2023/04/19 01:53:52;;;;;;;14.05;7.70;;;;;;;8.75;70.81;101308.66;5081843;28;20052;-50
2023/04/19 01:56:20;;;;;;;13.45;7.00;;;;;;;8.76;70.75;101304.34;5088405;28;20051;-52
2023/04/19 01:58:47;;;;;;;24.70;9.25;;;;;;;8.79;70.20;101301.84;5084419;28;20135;-49
2023/04/19 02:01:14;;;;;;;24.13;9.23;;;;;;;8.78;70.60;101303.53;5076216;28;20044;-50
2023/04/19 02:03:40;;;;;;;24.17;9.57;;;;;;;8.76;71.03;101306.94;5081381;28;20044;-49
2023/04/19 02:06:12;;;;;;;24.48;8.85;;;;;;;8.74;71.23;101307.78;5081975;28;20442;-52
2023/04/19 02:08:40;;;;;;;25.38;9.85;;;;;;;8.76;71.22;101304.34;5076913;28;20076;-49
2023/04/19 02:11:07;;;;;;;21.00;9.00;;;;;;;8.77;70.45;101300.91;5078007;28;20072;-49
2023/04/19 02:13:34;;;;;;;20.00;8.57;;;;;;;8.79;70.34;101304.44;5083536;28;20048;-49
2023/04/19 02:16:01;;;;;;;17.02;8.10;;;;;;;8.79;70.58;101299.25;5088598;28;20044;-52
2023/04/19 02:18:29;;;;;;;24.17;9.25;;;;;;;8.82;70.26;101304.50;5079672;28;20042;-52
2023/04/19 02:20:55;;;;;;;42.00;11.05;;;;;;;8.80;70.57;101303.59;5079882;28;20841;-51
2023/04/19 02:23:22;;;;;;;22.33;8.73;;;;;;;8.79;70.74;101297.56;5079283;28;20780;-52
2023/04/19 02:25:49;;;;;;;21.33;7.90;;;;;;;8.80;71.07;101301.00;5078900;28;20500;-53
2023/04/19 02:28:16;;;;;;;23.85;10.38;;;;;;;8.78;71.19;101297.53;5079193;28;20048;-51
2023/04/19 02:30:42;;;;;;;21.48;8.48;;;;;;;8.77;71.03;101290.59;5077670;28;20179;-47
2023/04/19 02:33:09;;;;;;;24.17;9.52;;;;;;;8.78;71.67;101294.94;5077567;28;20139;-50
2023/04/19 02:35:36;;;;;;;25.63;10.43;;;;;;;8.78;70.62;101294.94;5079096;28;20119;-49
2023/04/19 02:38:03;;;;;;;25.60;9.10;;;;;;;8.76;70.94;101294.00;5078055;28;20237;-49
2023/04/19 02:40:30;;;;;;;19.00;8.35;;;;;;;8.76;71.00;101291.44;5083589;28;20132;-47
2023/04/19 02:42:57;;;;;;;18.83;8.05;;;;;;;8.76;70.73;101288.84;5079399;28;20121;-53
2023/04/19 02:45:23;;;;;;;25.85;9.00;;;;;;;8.79;70.51;101279.47;5077262;28;20123;-51
2023/04/19 02:47:50;;;;;;;17.90;8.52;;;;;;;8.82;70.90;101278.69;5080268;28;20135;-49
2023/04/19 02:50:16;;;;;;;22.30;10.25;;;;;;;8.78;70.82;101282.88;5083807;28;20459;-48
2023/04/19 02:52:43;;;;;;;20.75;9.60;;;;;;;8.79;70.85;101278.59;5081381;28;20105;-52
2023/04/19 02:55:10;;;;;;;22.30;9.27;;;;;;;8.78;71.53;101282.03;5078563;28;20093;-46
2023/04/19 02:57:36;;;;;;;22.73;9.57;;;;;;;8.78;71.01;101276.84;5085543;28;20055;-50
2023/04/19 03:00:04;;;;;;;21.85;9.80;;;;;;;8.78;71.18;101277.72;5085125;28;20076;-45
2023/04/19 03:02:31;;;;;;;19.65;8.10;;;;;;;8.78;71.17;101266.53;5081065;28;20040;-51
2023/04/19 03:04:58;;;;;;;18.10;7.93;;;;;;;8.78;71.45;101276.84;5079903;28;20411;-53
2023/04/19 03:07:24;;;;;;;18.63;8.52;;;;;;;8.73;71.86;101272.47;5085255;28;20051;-52
2023/04/19 03:09:51;;;;;;;22.02;8.68;;;;;;;8.74;71.22;101271.59;5063575;28;20145;-51
2023/04/19 03:12:18;;;;;;;22.42;9.68;;;;;;;8.71;71.61;101263.78;5083999;28;20051;-47
2023/04/19 03:14:44;;;;;;;21.38;8.80;;;;;;;8.67;71.96;101277.47;5082140;28;20052;-45
2023/04/19 03:17:11;;;;;;;22.42;9.63;;;;;;;8.67;72.49;101272.28;5081814;28;20071;-51
2023/04/19 03:19:37;;;;;;;26.00;8.48;;;;;;;8.70;71.63;101269.78;5078998;28;20089;-49
2023/04/19 03:22:04;;;;;;;20.17;9.35;;;;;;;8.72;71.34;101278.44;5084055;28;20048;-51
2023/04/19 03:24:31;;;;;;;15.95;8.25;;;;;;;8.69;71.64;101275.81;5083344;28;20048;-49
2023/04/19 03:27:02;;;;;;;25.35;9.63;;;;;;;8.72;72.32;101273.25;5064242;28;20052;-49
2023/04/19 03:29:28;;;;;;;23.60;9.55;;;;;;;8.68;72.24;101268.00;5065627;28;20075;-51
2023/04/19 03:31:55;;;;;;;21.33;8.82;;;;;;;8.68;72.10;101268.88;5077340;28;20569;-51
2023/04/19 03:34:21;;;;;;;19.05;9.55;;;;;;;8.67;72.11;101268.81;5080092;28;20128;-49
2023/04/19 03:36:48;;;;;;;21.45;10.35;;;;;;;8.68;71.33;101261.13;5081362;28;20049;-48
2023/04/19 03:39:14;;;;;;;26.80;10.18;;;;;;;8.69;71.66;101268.06;5081680;28;20499;-49
2023/04/19 03:41:41;;;;;;;22.00;8.00;;;;;;;8.64;71.91;101269.63;5083926;28;20460;-52
2023/04/19 03:44:08;;;;;;;27.83;9.93;;;;;;;8.65;71.61;101266.19;5077757;28;20060;-50
2023/04/19 03:46:34;;;;;;;25.52;9.80;;;;;;;8.65;72.56;101271.38;5082984;28;20044;-48
2023/04/19 03:49:01;;;;;;;20.85;9.18;;;;;;;8.66;71.62;101260.22;5082835;28;20043;-48
2023/04/19 03:51:28;;;;;;;20.77;10.52;;;;;;;8.65;72.51;101266.19;5077254;28;20055;-48
2023/04/19 03:53:54;;;;;;;24.27;11.07;;;;;;;8.67;72.07;101264.53;5080126;28;20055;-47
2023/04/19 03:56:21;;;;;;;19.02;8.40;;;;;;;8.63;72.25;101267.88;5076989;28;20472;-48
2023/04/19 03:58:50;;;;;;;25.33;11.95;;;;;;;8.64;72.67;101266.19;5084467;28;20071;-49
2023/04/19 04:01:18;;;;;;;22.25;11.20;;;;;;;8.64;72.07;101268.78;5073755;28;20539;-52
2023/04/19 04:03:44;;;;;;;23.58;10.18;;;;;;;8.66;72.31;101262.81;5080078;28;20347;-51
2023/04/19 04:06:11;;;;;;;26.65;11.52;;;;;;;8.67;71.77;101268.81;5079388;28;20134;-49
2023/04/19 04:08:38;;;;;;;22.77;11.07;;;;;;;8.65;72.25;101255.88;5078252;28;20040;-53
2023/04/19 04:11:05;;;;;;;26.02;11.10;;;;;;;8.66;72.18;101264.50;5078171;28;20048;-50
2023/04/19 04:13:31;;;;;;;24.02;8.48;;;;;;;8.66;72.06;101257.63;5075740;28;20449;-54
2023/04/19 04:15:58;;;;;;;27.90;11.05;;;;;;;8.68;71.85;101258.53;5071708;28;20503;-46
2023/04/19 04:18:27;;;;;;;21.10;10.05;;;;;;;8.67;72.21;101254.22;5077248;28;20051;-50
2023/04/19 04:20:54;;;;;;;26.33;10.55;;;;;;;8.69;71.74;101257.72;5076451;28;20060;-51
2023/04/19 04:23:21;;;;;;;19.98;10.18;;;;;;;8.62;72.21;101260.97;5076056;28;20052;-52
2023/04/19 04:25:58;;;;;;;25.60;10.52;;;;;;;8.63;71.84;101252.38;5075588;28;20132;-48
2023/04/19 04:28:24;;;;;;;22.33;8.40;;;;;;;8.62;73.05;101258.41;5077127;28;20514;-49
2023/04/19 04:30:51;;;;;;;20.05;9.48;;;;;;;8.59;72.45;101261.78;5077103;28;20074;-51
2023/04/19 04:33:17;;;;;;;24.90;11.10;;;;;;;8.62;72.23;101258.41;5076395;28;20518;-49
2023/04/19 04:35:44;;;;;;;25.42;10.63;;;;;;;8.57;72.34;101253.09;5071106;28;20072;-51
2023/04/19 04:38:12;;;;;;;39.75;12.68;;;;;;;8.58;72.60;101248.84;5075095;28;20626;-49
2023/04/19 04:40:52;;;;;;;23.08;12.27;;;;;;;8.60;72.28;101257.47;5076151;28;20051;-49
2023/04/19 04:43:22;;;;;;;23.23;10.07;;;;;;;8.56;72.54;101258.22;5082295;28;20055;-50
2023/04/19 04:45:49;;;;;;;26.98;12.00;;;;;;;8.57;72.60;101260.84;5074877;28;20064;-53
2023/04/19 04:48:15;;;;;;;20.60;9.88;;;;;;;8.53;72.92;101256.44;5069027;28;20572;-53
2023/04/19 04:50:43;;;;;;;26.38;11.43;;;;;;;8.56;72.30;101260.81;5074564;28;20158;-51
2023/04/19 04:53:11;;;;;;;25.05;9.90;;;;;;;8.54;72.84;101262.50;5075281;28;20058;-52
2023/04/19 04:55:38;;;;;;;25.63;9.95;;;;;;;8.57;72.15;101265.13;5079565;28;20044;-50
2023/04/19 04:58:05;;;;;;;19.85;9.82;;;;;;;8.56;72.25;101266.88;5085707;28;20131;-53
2023/04/19 05:00:33;;;;;;;26.88;11.75;;;;;;;8.57;71.97;101259.97;5082149;28;20086;-50
2023/04/19 05:03:01;;;;;;;25.55;11.02;;;;;;;8.58;72.21;101267.75;5084585;28;20440;-46
2023/04/19 05:05:29;;;;;;;27.63;10.77;;;;;;;8.56;73.07;101260.81;5085240;28;20043;-53
2023/04/19 05:07:55;;;;;;;26.02;10.00;;;;;;;8.56;72.78;101268.56;5089729;28;20543;-49
2023/04/19 05:10:22;;;;;;;19.40;8.30;;;;;;;8.53;72.90;101271.03;5089651;28;20047;-48
2023/04/19 05:12:49;;;;;;;25.30;10.77;;;;;;;8.57;72.07;101276.34;5085284;28;20040;-51
2023/04/19 05:15:15;;;;;;;25.60;11.63;;;;;;;8.55;72.34;101264.25;5085506;28;20048;-51
2023/04/19 05:17:42;;;;;;;25.63;11.50;;;;;;;8.59;72.80;101271.22;5085626;28;20054;-49
2023/04/19 05:20:09;;;;;;;22.92;10.43;;;;;;;8.59;72.88;101276.41;5086972;28;20094;-48
2023/04/19 05:22:36;;;;;;;28.15;10.85;;;;;;;8.59;72.21;101272.13;5087865;28;20056;-52
2023/04/19 05:25:04;;;;;;;26.30;9.82;;;;;;;8.61;73.30;101274.72;5086470;28;20098;-52
2023/04/19 05:27:30;;;;;;;22.75;9.43;;;;;;;8.64;72.67;101284.28;5068544;28;20435;-48
2023/04/19 05:29:57;;;;;;;22.63;9.90;;;;;;;8.61;73.26;101277.28;5055091;28;20044;-51
2023/04/19 05:32:24;;;;;;;23.02;9.55;;;;;;;8.61;73.51;101273.00;5081921;28;20093;-48
2023/04/19 05:34:50;;;;;;;24.38;11.13;;;;;;;8.64;73.20;101269.63;5082465;28;20052;-48
2023/04/19 05:37:17;;;;;;;21.77;9.52;;;;;;;8.66;73.17;101278.31;5085344;28;20546;-52
2023/04/19 05:39:43;;;;;;;23.88;10.88;;;;;;;8.60;73.22;101273.84;5081475;28;20518;-53
2023/04/19 05:42:10;;;;;;;25.92;11.77;;;;;;;8.65;73.55;101275.69;5085163;28;20048;-51
2023/04/19 05:44:37;;;;;;;27.42;10.77;;;;;;;8.67;73.65;101277.47;5083658;28;20138;-52
2023/04/19 05:47:04;;;;;;;21.52;9.93;;;;;;;8.68;73.20;101275.75;5082940;28;20076;-48
2023/04/19 05:49:30;;;;;;;26.77;9.88;;;;;;;8.69;73.77;101283.56;5082026;28;20075;-54
2023/04/19 05:51:57;;;;;;;22.83;10.02;;;;;;;8.70;72.55;101285.28;5082141;28;20061;-48
2023/04/19 05:54:24;;;;;;;24.92;9.40;;;;;;;8.74;73.03;101281.94;5088369;28;20404;-54
2023/04/19 05:56:50;;;;;;;28.13;11.18;;;;;;;8.78;73.15;101292.34;5085708;28;20117;-51
2023/04/19 05:59:17;;;;;;;18.08;8.10;;;;;;;8.78;73.24;101282.88;5086945;28;20074;-54
2023/04/19 06:01:44;;;;;;;23.88;10.98;;;;;;;8.90;72.55;101291.75;5087151;28;20105;-50
2023/04/19 06:04:10;;;;;;;25.52;11.00;;;;;;;8.96;73.01;101289.34;5085745;28;20110;-51
2023/04/19 06:06:37;;;;;;;19.55;9.48;;;;;;;8.98;73.13;101291.13;5086029;28;20044;-54
2023/04/19 06:09:05;;;;;;;21.98;11.48;;;;;;;9.00;73.13;101293.75;5079610;28;20044;-51
2023/04/19 06:11:32;;;;;;;26.38;10.70;;;;;;;9.03;73.04;101303.28;5078335;28;20501;-52
2023/04/19 06:14:12;;;;;;;23.08;9.65;;;;;;;9.03;72.99;101292.94;5078976;28;20040;-52
2023/04/19 06:16:40;;;;;;;21.92;10.30;;;;;;;9.04;73.29;101294.69;5075993;28;20048;-52
2023/04/19 06:19:07;;;;;;;21.95;11.05;;;;;;;9.08;72.60;101296.50;5062461;28;20479;-53
2023/04/19 06:21:34;;;;;;;21.52;10.95;;;;;;;9.09;72.61;101287.94;5081853;28;20054;-50
2023/04/19 06:24:00;;;;;;;23.65;11.18;;;;;;;9.13;72.59;101300.09;5048956;28;20044;-49
2023/04/19 06:26:27;;;;;;;26.85;11.30;;;;;;;9.19;72.65;101295.03;5079714;28;20135;-48
2023/04/19 06:28:54;;;;;;;26.33;9.82;;;;;;;9.24;72.42;101293.44;5078942;28;20055;-50
2023/04/19 06:31:20;;;;;;;23.63;10.50;;;;;;;9.26;72.77;101296.06;5076353;28;20927;-50
2023/04/19 06:33:47;;;;;;;23.65;9.95;;;;;;;9.30;72.07;101291.84;5074463;28;20204;-53
2023/04/19 06:36:14;;;;;;;21.52;9.40;;;;;;;9.26;71.71;101289.16;5075996;28;20062;-47
2023/04/19 06:38:43;;;;;;;25.52;10.93;;;;;;;9.29;71.89;101295.25;5076614;28;20139;-47
2023/04/19 06:41:10;;;;;;;22.63;9.60;;;;;;;9.24;71.57;101297.75;5072072;28;20101;-54
2023/04/19 06:43:38;;;;;;;25.52;10.32;;;;;;;9.20;72.30;101296.81;5074418;28;20509;-50
2023/04/19 06:46:05;;;;;;;25.33;9.45;;;;;;;9.14;72.38;101296.66;5080497;28;20044;-49
2023/04/19 06:48:33;;;;;;;23.25;9.15;;;;;;;9.20;72.14;101301.97;5076889;28;20093;-48
2023/04/19 06:51:00;;;;;;;27.02;11.25;;;;;;;9.29;72.03;101300.44;5062117;28;20040;-48
2023/04/19 06:53:26;;;;;;;23.10;10.60;;;;;;;9.36;72.22;101286.81;5073977;28;20045;-47
2023/04/19 06:55:59;;;;;;;21.55;8.40;;;;;;;9.38;72.12;101293.75;5075417;28;20624;-50
2023/04/19 06:58:27;;;;;;;19.40;9.35;;;;;;;9.44;71.66;101290.44;5055849;28;20076;-49
2023/04/19 07:00:54;;;;;;;22.67;10.75;;;;;;;9.50;71.76;101287.97;5075558;28;20053;-47
2023/04/19 07:03:21;;;;;;;24.63;10.57;;;;;;;9.56;71.35;101291.53;5072500;28;20147;-49
2023/04/19 07:05:48;;;;;;;22.23;7.78;;;;;;;9.60;71.69;101291.63;5075298;28;20048;-49
2023/04/19 07:08:15;;;;;;;16.92;7.95;;;;;;;9.68;71.44;101294.38;5058311;28;20093;-49
2023/04/19 07:10:42;;;;;;;25.05;9.27;;;;;;;9.75;71.79;101296.25;5056301;28;20139;-50
2023/04/19 07:13:10;;;;;;;23.20;11.00;;;;;;;9.82;71.07;101298.97;5079766;28;20052;-48
2023/04/19 07:15:37;;;;;;;18.70;9.27;;;;;;;9.82;71.57;101298.97;5072294;28;20059;-50
2023/04/19 07:18:04;;;;;;;22.75;11.32;;;;;;;9.86;71.50;101303.38;5079808;28;20075;-51
2023/04/19 07:20:31;;;;;;;25.33;11.40;;;;;;;9.88;71.18;101301.69;5072843;28;20065;-46
2023/04/19 07:22:58;;;;;;;21.35;10.52;;;;;;;9.89;71.13;101308.59;5081016;28;20052;-47
2023/04/19 07:25:25;;;;;;;22.48;10.60;;;;;;;9.87;71.01;101305.97;5083724;28;20086;-52
2023/04/19 07:27:53;;;;;;;24.95;11.57;;;;;;;9.83;71.14;101308.50;5082129;28;20044;-48
2023/04/19 07:30:20;;;;;;;23.23;10.50;;;;;;;9.83;71.17;101313.66;5081755;28;20050;-49
2023/04/19 07:32:47;;;;;;;21.38;10.52;;;;;;;9.87;71.96;101305.97;5082799;28;20044;-51
2023/04/19 07:35:14;;;;;;;25.67;9.85;;;;;;;9.96;71.46;101315.66;5076551;28;20053;-49
2023/04/19 07:37:41;;;;;;;27.42;10.70;;;;;;;10.09;71.14;101321.06;5079056;28;20049;-52
2023/04/19 07:40:08;;;;;;;28.20;11.32;;;;;;;10.18;71.04;101315.19;5089373;28;20059;-50
2023/04/19 07:42:35;;;;;;;22.40;10.75;;;;;;;10.18;70.64;101316.09;5087195;28;20071;-53
2023/04/19 07:45:02;;;;;;;23.10;10.85;;;;;;;10.27;70.72;101316.25;5064385;28;20059;-52
2023/04/19 07:47:28;;;;;;;23.65;10.13;;;;;;;10.39;70.94;101314.72;5086921;28;20071;-54
2023/04/19 07:49:55;;;;;;;21.65;10.70;;;;;;;10.45;70.96;101317.47;5090311;28;20127;-51
2023/04/19 07:52:21;;;;;;;20.55;8.95;;;;;;;10.54;70.43;101324.56;5080870;28;20579;-51
2023/04/19 07:54:48;;;;;;;21.95;8.05;;;;;;;10.52;70.05;101323.63;5086881;28;20818;-52
2023/04/19 07:57:15;;;;;;;18.70;9.68;;;;;;;10.48;70.04;101319.25;5080697;28;20059;-51
2023/04/19 07:59:41;;;;;;;21.92;10.15;;;;;;;10.47;69.95;101323.53;5084481;28;20075;-49
2023/04/19 08:02:08;;;;;;;24.45;11.07;;;;;;;10.45;70.10;101314.88;5084486;28;20078;-52
2023/04/19 08:04:36;;;;;;;22.15;11.13;;;;;;;10.50;70.01;101318.44;5085488;28;20514;-50
2023/04/19 08:07:03;;;;;;;25.73;9.52;;;;;;;10.61;70.63;101315.16;5077802;28;20396;-50
2023/04/19 08:09:32;;;;;;;22.55;10.13;;;;;;;10.85;69.83;101319.91;5087480;28;20059;-49
2023/04/19 08:12:00;;;;;;;24.33;10.98;;;;;;;11.21;69.34;101315.25;5071574;28;20083;-49
2023/04/19 08:14:26;;;;;;;24.55;12.45;;;;;;;11.31;69.71;101324.03;5086120;28;20071;-50
2023/04/19 08:17:06;;;;;;;25.38;10.50;;;;;;;11.34;68.68;101318.91;5085433;28;20503;-53
2023/04/19 08:19:52;;;;;;;21.85;10.55;;;;;;;11.41;68.26;101322.44;5080656;28;20040;-49
2023/04/19 08:22:20;;;;;;;22.58;11.45;;;;;;;11.69;69.40;101325.44;5082235;28;20048;-54
2023/04/19 08:24:50;;;;;;;22.92;10.98;;;;;;;11.93;67.74;101324.88;5062578;28;20044;-50
2023/04/19 08:27:17;;;;;;;24.67;11.93;;;;;;;11.92;68.18;101328.31;5078620;28;20518;-47
2023/04/19 08:29:44;;;;;;;22.77;10.85;;;;;;;11.82;68.06;101326.44;5085947;28;20051;-54
2023/04/19 08:32:12;;;;;;;23.90;13.02;;;;;;;11.74;67.12;101326.38;5063741;28;20499;-51
2023/04/19 08:34:39;;;;;;;21.85;12.88;;;;;;;11.64;67.88;101321.91;5081755;28;20127;-53
2023/04/19 08:37:06;;;;;;;26.25;11.10;;;;;;;11.59;67.40;101320.97;5076200;28;20044;-53
2023/04/19 08:39:33;;;;;;;20.92;10.20;;;;;;;11.52;68.39;101326.06;5094450;28;20051;-51
2023/04/19 08:42:04;;;;;;;17.08;8.95;;;;;;;11.50;67.69;101330.38;5090010;28;20044;-51
2023/04/19 08:44:50;;;;;;;21.13;10.48;;;;;;;11.48;68.50;101328.63;5070747;28;20048;-49
2023/04/19 08:47:37;;;;;;;24.75;10.63;;;;;;;11.45;67.99;101326.81;5080076;28;20049;-50
2023/04/19 08:50:22;;;;;;;25.42;11.68;;;;;;;11.53;67.67;101325.25;5092373;28;20054;-52
2023/04/19 08:53:00;;;;;;;24.15;10.60;;;;;;;11.72;67.99;101320.28;5087134;28;20059;-50
2023/04/19 08:55:47;;;;;;;22.05;10.57;;;;;;;12.02;67.67;101324.09;5090001;28;20044;-48
2023/04/19 08:58:34;;;;;;;23.67;10.77;;;;;;;12.29;68.25;101322.72;5090474;28;20079;-50
2023/04/19 09:01:04;;;;;;;26.15;11.32;;;;;;;12.44;67.62;101322.00;5091878;28;20125;-53
2023/04/19 09:03:31;;;;;;;19.85;9.55;;;;;;;12.54;66.05;101322.97;5088186;28;20044;-50
2023/04/19 09:06:13;;;;;;;21.45;10.77;;;;;;;12.59;66.71;101321.28;5087348;28;20052;-50
2023/04/19 09:08:40;;;;;;;21.70;10.75;;;;;;;12.64;66.63;101326.53;5070603;28;20047;-50
2023/04/19 09:11:08;;;;;;;20.83;8.60;;;;;;;12.59;65.91;101321.28;5093630;28;20662;-53
2023/04/19 09:13:39;;;;;;;16.50;8.40;;;;;;;12.60;65.95;101328.22;5089094;28;20078;-48
2023/04/19 09:16:06;;;;;;;20.27;9.45;;;;;;;12.60;66.51;101323.00;5088407;28;20762;-49
2023/04/19 09:18:52;;;;;;;20.55;9.45;;;;;;;12.55;65.52;101319.50;5064773;28;20201;-52
2023/04/19 09:21:38;;;;;;;21.95;11.15;;;;;;;12.69;65.69;101304.03;5079622;28;20051;-47
2023/04/19 09:24:05;;;;;;;21.75;10.30;;;;;;;12.96;66.89;101296.44;5088990;28;20051;-48
2023/04/19 09:26:33;;;;;;;18.33;9.98;;;;;;;13.13;66.32;101306.97;5085220;28;20059;-55
2023/04/19 09:29:04;;;;;;;25.17;9.85;;;;;;;13.25;65.26;101306.19;5089405;28;20074;-52
2023/04/19 09:31:33;;;;;;;21.70;9.93;;;;;;;13.32;65.40;101307.09;5062347;28;20071;-52
2023/04/19 09:34:18;;;;;;;23.13;10.40;;;;;;;13.38;64.99;101314.94;5069861;28;20053;-53
2023/04/19 09:36:45;;;;;;;21.08;9.80;;;;;;;13.37;64.46;101319.25;5049436;28;20076;-50
2023/04/19 09:39:13;;;;;;;19.23;9.95;;;;;;;13.31;64.49;101319.22;5089385;28;20055;-48
2023/04/19 09:41:57;;;;;;;18.08;9.43;;;;;;;13.24;64.71;101320.03;5069099;28;20063;-52
2023/04/19 09:44:23;;;;;;;21.08;10.07;;;;;;;13.23;65.20;101313.09;5084244;28;20048;-53
2023/04/19 09:46:54;;;;;;;23.27;10.65;;;;;;;13.22;64.88;101316.56;5089180;28;20090;-52
2023/04/19 09:49:23;;;;;;;25.58;10.10;;;;;;;13.20;64.67;101319.16;5085236;28;20048;-47
2023/04/19 09:52:09;;;;;;;17.25;9.00;;;;;;;13.22;65.26;101324.38;5081619;28;20056;-56
2023/04/19 09:54:36;;;;;;;16.20;9.82;;;;;;;13.25;65.04;101311.38;5088797;28;20594;-56
2023/04/19 09:57:03;;;;;;;16.83;9.32;;;;;;;13.31;64.34;101316.63;5088812;28;20067;-52
2023/04/19 09:59:30;;;;;;;16.83;8.70;;;;;;;13.37;64.79;101314.06;5086177;28;20071;-53
2023/04/19 10:01:59;;;;;;;17.30;9.00;;;;;;;13.42;64.75;101308.00;5092706;28;20055;-54
2023/04/19 10:04:27;;;;;;;18.92;9.73;;;;;;;13.37;65.02;101318.38;5083556;28;20507;-52
2023/04/19 10:07:14;;;;;;;16.45;8.57;;;;;;;13.36;65.06;101312.34;5088134;28;20040;-49
2023/04/19 10:09:45;;;;;;;21.95;10.80;;;;;;;13.42;64.89;101308.00;5085926;28;20086;-47
2023/04/19 10:12:15;;;;;;;19.45;9.20;;;;;;;13.36;65.41;101304.53;5071362;28;20154;-53
2023/04/19 10:14:46;;;;;;;18.55;8.88;;;;;;;13.34;64.69;101297.56;5087128;28;20040;-51
2023/04/19 10:17:14;;;;;;;24.02;9.50;;;;;;;13.36;65.12;101303.63;5084449;28;20040;-55
2023/04/19 10:19:43;;;;;;;15.32;8.00;;;;;;;13.46;65.09;101299.34;5078592;28;20093;-54
2023/04/19 10:22:11;;;;;;;22.05;10.45;;;;;;;13.54;64.50;101308.09;5089391;28;20047;-55
2023/04/19 10:24:38;;;;;;;24.42;12.07;;;;;;;13.59;64.39;101305.53;5087304;28;20101;-52
2023/04/19 10:32:39;;;;;;;21.15;8.85;;;;;;;14.02;64.66;101286.63;5028538;28;20412;-55
2023/04/19 10:38:06;;;;;;;17.42;8.05;;;;;;;14.31;63.72;101285.78;5117936;27;20606;-52
2023/04/19 10:40:59;;;;;;;16.92;8.00;;;;;;;14.37;62.73;101280.59;5044325;28;20094;-53
2023/04/19 10:43:28;;;;;;;15.52;7.00;;;;;;;14.46;62.79;101284.94;5059513;28;20044;-53
2023/04/19 10:46:07;;;;;;;16.90;7.07;;;;;;;14.46;62.31;101284.94;5073702;28;20083;-54
2023/04/19 10:48:37;;;;;;;18.27;8.20;;;;;;;14.48;62.08;101277.13;5056696;28;20497;-56
2023/04/19 10:53:50;;;;;;;21.30;11.10;;;;;;;14.56;62.33;101269.31;5063628;27;20408;-51
2023/04/19 10:56:21;;;;;;;17.08;9.18;;;;;;;14.61;62.03;101270.19;5039854;28;20123;-53
2023/04/19 11:07:26;;;;;;;15.55;7.55;;;;;;;15.25;61.26;101264.91;5044219;27;20837;-52
2023/04/19 11:09:53;;;;;;;25.48;9.23;;;;;;;15.29;61.68;101266.63;5043561;28;20045;-51
2023/04/19 11:12:20;;;;;;;22.65;7.63;;;;;;;15.41;61.67;101263.97;5042107;28;20082;-54
2023/04/19 11:14:52;;;;;;;23.05;6.82;;;;;;;15.30;60.59;101263.16;5030106;28;20042;-51
2023/04/19 11:17:28;;;;;;;17.48;8.55;;;;;;;15.31;61.14;101264.91;5028047;28;20052;-55
2023/04/19 11:19:57;;;;;;;19.35;7.80;;;;;;;15.34;60.84;101264.91;5038763;28;20049;-54
2023/04/19 11:22:25;;;;;;;18.65;7.95;;;;;;;15.36;61.29;101250.09;5040327;28;20108;-51
2023/04/19 11:24:52;;;;;;;17.85;8.45;;;;;;;15.41;61.15;101256.16;5038495;28;20444;-57
2023/04/19 11:27:20;;;;;;;16.38;7.55;;;;;;;15.40;60.64;101248.34;5041334;28;20111;-56
2023/04/19 11:29:47;;;;;;;16.98;7.22;;;;;;;15.39;60.77;101263.13;5043039;28;20125;-55
2023/04/19 11:32:13;;;;;;;18.73;8.20;;;;;;;15.32;60.37;101250.09;5042507;28;20493;-54
2023/04/19 11:34:40;;;;;;;15.85;7.10;;;;;;;15.33;60.83;101246.63;5043724;28;20079;-55
2023/04/19 11:37:08;;;;;;;16.73;7.07;;;;;;;15.36;60.33;101247.47;5037766;28;20038;-55
2023/04/19 11:39:44;;;;;;;15.38;7.70;;;;;;;15.35;60.54;101243.13;5046104;28;20708;-51
2023/04/19 11:42:17;;;;;;;18.38;7.53;;;;;;;15.27;60.50;101252.75;5039564;28;20048;-54
2023/04/19 11:44:49;;;;;;;16.92;7.78;;;;;;;15.25;60.90;101250.13;5041036;28;20052;-52